Springfield Branson National Airport
KSGF : now visible

Airfield :











YOU CAN JOIN US ON...

 
LOGIN :

Register | Disclaimer

   EN    FR    IT 

 









Legend :    VFR   Marginal VFR   IFR   Intensive IFR   Very Intensive IFR
Visi :
Ceiling :
>= 8 km
>= 3000ft
5 to 8 km
1000 to 3000 ft
1500m to 5 km
500 to 1000 ft
800 to 1500m
200 to 500 ft
< 800m
< 200 ft
Symbols :   Thunderstorms  Fog  Heavy snow  Heavy precipitations  Wind > 20 kt






- Airport Elevation : 1268 ft
- IATA code : SGF


KSGF - Springfield Branson National

CURRENT METAR :
  • 231252Z 16007KT 10SM BKN100 OVC110 06/M02 A3005 RMK AO2 SLP179 T00561022

EXPIRED METARs :
  • 231152Z 17008KT 10SM OVC110 06/M03 A3006 RMK AO2 SLP181 T00561028 10061 20050 56009
  • 231052Z 17008KT 10SM SCT120 06/M03 A3007 RMK AO2 SLP183 T00561033

TAF KSGF
Valid from the 23 at 12:00 until the 24 at 12:00 UTC


231129Z 2312/2412 19005KT P6SM VCSH OVC120
TEMPO 2318/2321 4SM -SHRA OVC025
FM232100 18005KT 6SM -SHRA OVC030
FM240000 15005KT 4SM SHRA OVC013
FM240800 12008KT 3SM SHRA OVC005



MET'MAP, your aeronautical weather chart ! - Copyright ORBIFLY December 2007 - Disclaimer

ORBIFLY MET'MAP TEAM :

Programming & Development : Alexandra Zaïnal
Concept & original design : Baudouin d'Aumeries
Assistance for programming : Marc-Olivier Méhu
Technical & hardware support : Manuel Goepfert

Contact : metmap@orbifly.com




SOURCES & CREDITS :

   NOAA       Earth
Advisory